createdAt,value
2023-02-26T00:01:32.138Z,11.10
2023-02-26T00:04:02.052Z,4.63
2023-02-26T00:06:32.424Z,8.95
2023-02-26T00:08:59.807Z,6.65
2023-02-26T00:11:27.332Z,7.43
2023-02-26T00:13:54.582Z,5.28
2023-02-26T00:16:34.461Z,9.35
2023-02-26T00:19:04.873Z,5.20
2023-02-26T00:21:33.121Z,7.65
2023-02-26T00:24:02.051Z,5.30
2023-02-26T00:26:31.370Z,4.40
2023-02-26T00:28:58.937Z,10.27
2023-02-26T00:31:27.099Z,6.28
2023-02-26T00:33:55.885Z,2.03
2023-02-26T00:36:28.479Z,9.63
2023-02-26T00:39:34.130Z,2.35
2023-02-26T00:42:01.345Z,15.35
2023-02-26T00:44:28.701Z,8.63
2023-02-26T00:47:10.788Z,3.88
2023-02-26T00:50:04.523Z,5.30
2023-02-26T00:52:53.008Z,2.70
2023-02-26T00:55:20.154Z,8.23
2023-02-26T00:57:47.260Z,5.55
2023-02-26T01:00:15.008Z,2.60
2023-02-26T01:02:43.485Z,5.90
2023-02-26T01:05:11.870Z,4.68
2023-02-26T01:07:45.866Z,2.90
2023-02-26T01:10:14.238Z,6.72
2023-02-26T01:12:42.301Z,6.43
2023-02-26T01:15:10.623Z,2.53
2023-02-26T01:17:48.381Z,2.60
2023-02-26T01:20:21.279Z,5.60
2023-02-26T01:23:08.979Z,9.30
2023-02-26T01:25:47.352Z,4.78
2023-02-26T01:28:14.940Z,2.53
2023-02-26T01:30:42.931Z,12.07
2023-02-26T01:33:34.638Z,2.47
2023-02-26T01:36:11.754Z,3.80
2023-02-26T01:38:56.925Z,11.35
2023-02-26T01:41:24.746Z,4.63
2023-02-26T01:44:02.305Z,7.97
2023-02-26T01:46:57.469Z,8.48
2023-02-26T01:49:25.378Z,2.25
2023-02-26T01:52:01.191Z,2.65
2023-02-26T01:54:37.462Z,6.82
2023-02-26T01:57:18.491Z,2.33
2023-02-26T01:59:51.084Z,4.00
2023-02-26T02:02:22.688Z,7.20
2023-02-26T02:04:50.105Z,7.95
2023-02-26T02:07:18.604Z,4.32
2023-02-26T02:09:47.509Z,2.78
2023-02-26T02:12:35.107Z,3.60
2023-02-26T02:15:12.368Z,12.50
2023-02-26T02:17:59.900Z,7.03
2023-02-26T02:20:38.937Z,7.13
2023-02-26T02:23:11.741Z,3.17
2023-02-26T02:25:57.581Z,3.90
2023-02-26T02:28:42.670Z,7.78
2023-02-26T02:31:20.809Z,5.05
2023-02-26T02:33:58.212Z,0.95
2023-02-26T02:36:36.396Z,8.32
2023-02-26T02:39:11.298Z,8.15
2023-02-26T02:41:45.743Z,2.72
2023-02-26T02:44:17.680Z,3.63
2023-02-26T02:46:47.570Z,3.28
2023-02-26T02:49:25.498Z,11.30
2023-02-26T02:52:16.662Z,3.25
2023-02-26T02:54:51.909Z,5.18
2023-02-26T02:57:33.833Z,3.60
2023-02-26T03:00:06.800Z,2.20
2023-02-26T03:02:41.518Z,3.70
2023-02-26T03:05:09.115Z,4.63
2023-02-26T03:07:42.375Z,3.85
2023-02-26T03:10:10.129Z,5.00
2023-02-26T03:12:37.336Z,8.00
2023-02-26T03:15:04.976Z,8.80
2023-02-26T03:17:40.989Z,4.20
2023-02-26T03:20:16.749Z,7.10
2023-02-26T03:23:19.864Z,2.70
2023-02-26T03:25:54.504Z,1.90
2023-02-26T03:28:41.535Z,4.25
2023-02-26T03:31:31.320Z,6.53
2023-02-26T03:34:03.090Z,5.88
2023-02-26T03:36:37.814Z,5.13
2023-02-26T03:39:26.741Z,7.43
2023-02-26T03:42:00.124Z,5.82
2023-02-26T03:44:38.974Z,2.70
2023-02-26T03:47:11.099Z,4.28
2023-02-26T03:49:56.621Z,4.22
2023-02-26T03:52:28.742Z,8.63
2023-02-26T03:55:39.055Z,3.78
2023-02-26T03:58:18.553Z,5.32
2023-02-26T04:01:09.262Z,5.30
2023-02-26T04:06:16.980Z,8.32
2023-02-26T04:08:44.919Z,4.38
2023-02-26T04:11:19.407Z,7.07
2023-02-26T04:13:47.192Z,7.55
2023-02-26T04:16:14.690Z,2.85
2023-02-26T04:18:42.572Z,3.88
2023-02-26T04:21:21.400Z,8.07
2023-02-26T04:23:52.346Z,5.40
2023-02-26T04:26:19.503Z,7.00
2023-02-26T04:28:46.823Z,4.85
2023-02-26T04:31:15.553Z,3.85
2023-02-26T04:33:42.839Z,4.70
2023-02-26T04:36:10.563Z,15.40
2023-02-26T04:38:37.822Z,5.93
2023-02-26T04:41:06.927Z,4.20
2023-02-26T04:43:33.980Z,8.35
2023-02-26T04:46:15.471Z,10.45
2023-02-26T04:48:42.795Z,9.10
2023-02-26T04:51:09.847Z,10.52
2023-02-26T04:53:36.905Z,6.28
2023-02-26T04:56:04.655Z,5.13
2023-02-26T04:58:31.986Z,6.43
2023-02-26T05:01:04.436Z,4.90
2023-02-26T05:03:31.831Z,3.40
2023-02-26T05:05:58.926Z,6.35
2023-02-26T05:08:26.196Z,4.63
2023-02-26T05:10:53.217Z,7.60
2023-02-26T05:13:21.383Z,18.30
2023-02-26T05:15:48.409Z,3.55
2023-02-26T05:18:15.440Z,3.97
2023-02-26T05:20:42.501Z,7.00
2023-02-26T05:23:09.535Z,3.90
2023-02-26T05:25:36.559Z,5.28
2023-02-26T05:28:03.741Z,6.57
2023-02-26T05:30:30.785Z,5.63
2023-02-26T05:32:57.777Z,4.88
2023-02-26T05:35:24.774Z,7.03
2023-02-26T05:37:51.829Z,4.97
2023-02-26T05:40:18.923Z,3.35
2023-02-26T05:42:45.936Z,7.72
2023-02-26T05:45:13.004Z,8.88
2023-02-26T05:47:40.125Z,5.40
2023-02-26T05:50:07.788Z,8.80
2023-02-26T05:52:34.909Z,10.88
2023-02-26T05:55:02.156Z,7.68
2023-02-26T05:57:29.289Z,8.02
2023-02-26T05:59:56.297Z,7.40
2023-02-26T06:02:23.317Z,9.57
2023-02-26T06:04:50.339Z,8.95
2023-02-26T06:07:17.390Z,3.75
2023-02-26T06:09:44.486Z,3.95
2023-02-26T06:12:11.530Z,15.23
2023-02-26T06:14:38.543Z,10.07
2023-02-26T06:17:06.628Z,10.77
2023-02-26T06:19:33.986Z,16.60
2023-02-26T06:22:01.043Z,10.50
2023-02-26T06:24:28.086Z,13.80
2023-02-26T06:26:55.143Z,15.95
2023-02-26T06:29:23.425Z,9.07
2023-02-26T06:31:50.705Z,12.65
2023-02-26T06:34:18.036Z,8.27
2023-02-26T06:36:45.024Z,6.53
2023-02-26T06:39:12.699Z,3.17
2023-02-26T06:41:40.280Z,6.63
2023-02-26T06:44:07.393Z,4.20
2023-02-26T06:46:34.433Z,6.30
2023-02-26T06:49:01.469Z,9.43
2023-02-26T06:51:29.168Z,4.43
2023-02-26T06:53:56.810Z,5.10
2023-02-26T06:56:24.465Z,9.05
2023-02-26T06:58:51.670Z,3.70
2023-02-26T07:01:18.949Z,7.72
2023-02-26T07:03:45.980Z,4.43
2023-02-26T07:06:26.357Z,6.55
2023-02-26T07:08:55.052Z,4.47
2023-02-26T07:11:22.110Z,4.68
2023-02-26T07:13:49.113Z,4.72
2023-02-26T07:16:16.087Z,3.90
2023-02-26T07:18:43.062Z,7.57
2023-02-26T07:21:10.073Z,3.33
2023-02-26T07:23:37.169Z,9.88
2023-02-26T07:26:04.400Z,9.55
2023-02-26T07:28:31.390Z,6.75
2023-02-26T07:30:58.588Z,6.40
2023-02-26T07:33:28.243Z,8.13
2023-02-26T07:35:55.246Z,5.78
2023-02-26T07:38:22.297Z,5.07
2023-02-26T07:40:49.410Z,2.75
2023-02-26T07:43:16.490Z,1.83
2023-02-26T07:45:43.449Z,5.57
2023-02-26T07:48:10.474Z,3.75
2023-02-26T07:50:37.450Z,1.50
2023-02-26T07:53:04.512Z,2.95
2023-02-26T07:55:31.616Z,6.00
2023-02-26T07:57:58.642Z,1.35
2023-02-26T08:00:25.673Z,2.05
2023-02-26T08:02:52.822Z,2.50
2023-02-26T08:05:19.843Z,2.13
2023-02-26T08:07:46.848Z,3.42
2023-02-26T08:10:14.345Z,3.92
2023-02-26T08:12:41.388Z,6.10
2023-02-26T08:15:09.215Z,7.22
2023-02-26T08:17:36.290Z,6.25
2023-02-26T08:20:04.982Z,5.07
2023-02-26T08:22:32.068Z,3.80
2023-02-26T08:24:59.126Z,2.40
2023-02-26T08:27:26.442Z,6.05
2023-02-26T08:29:53.419Z,1.13
2023-02-26T08:32:22.951Z,2.22
2023-02-26T08:34:49.999Z,4.30
2023-02-26T08:37:17.036Z,2.25
2023-02-26T08:39:44.018Z,3.10
2023-02-26T08:42:12.291Z,1.77
2023-02-26T08:44:39.355Z,3.05
2023-02-26T08:47:06.400Z,6.55
2023-02-26T08:49:33.392Z,5.20
2023-02-26T08:52:00.364Z,1.48
2023-02-26T08:54:27.330Z,2.65
2023-02-26T08:56:55.845Z,7.03
2023-02-26T08:59:23.680Z,2.40
2023-02-26T09:01:51.028Z,3.80
2023-02-26T09:04:18.153Z,2.67
2023-02-26T09:06:45.375Z,5.72
2023-02-26T09:09:12.585Z,2.15
2023-02-26T09:11:39.794Z,0.82
2023-02-26T09:14:07.000Z,17.33
2023-02-26T09:16:36.639Z,2.83
2023-02-26T09:19:04.962Z,4.28
2023-02-26T09:21:32.435Z,2.53
2023-02-26T09:23:59.566Z,4.40
2023-02-26T09:26:27.044Z,0.60
2023-02-26T09:28:54.284Z,3.92
2023-02-26T09:31:21.418Z,1.02
2023-02-26T09:33:48.421Z,2.58
2023-02-26T09:36:15.501Z,4.78
2023-02-26T09:38:44.174Z,3.30
2023-02-26T09:41:36.292Z,3.20
2023-02-26T09:44:28.376Z,1.50
2023-02-26T09:47:12.022Z,3.42
2023-02-26T09:49:47.986Z,1.15
2023-02-26T09:52:29.938Z,4.07
2023-02-26T09:55:01.206Z,5.20
2023-02-26T09:57:32.708Z,1.30
2023-02-26T10:00:00.616Z,2.92
2023-02-26T10:02:38.026Z,6.72
2023-02-26T10:05:22.961Z,2.47
2023-02-26T10:08:06.153Z,2.63
2023-02-26T10:10:56.923Z,5.03
2023-02-26T10:13:29.856Z,1.48
2023-02-26T10:16:04.691Z,3.67
2023-02-26T10:18:36.272Z,2.17
2023-02-26T10:21:15.053Z,2.70
2023-02-26T10:23:48.738Z,4.65
2023-02-26T10:26:25.423Z,1.80
2023-02-26T10:29:34.485Z,2.42
2023-02-26T10:32:26.427Z,3.60
2023-02-26T10:35:00.197Z,3.38
2023-02-26T10:37:55.644Z,3.55
2023-02-26T10:40:28.834Z,3.08
2023-02-26T10:43:04.617Z,3.25
2023-02-26T10:45:59.933Z,1.85
2023-02-26T10:48:54.252Z,4.93
2023-02-26T10:51:25.971Z,1.45
2023-02-26T10:53:59.599Z,4.93
2023-02-26T10:56:30.696Z,6.65
2023-02-26T10:58:57.975Z,1.08
2023-02-26T11:01:27.774Z,2.50
2023-02-26T11:04:21.228Z,5.35
2023-02-26T11:06:55.283Z,2.25
2023-02-26T11:09:28.894Z,4.32
2023-02-26T11:12:05.801Z,2.42
2023-02-26T11:14:34.327Z,2.05
2023-02-26T11:17:17.450Z,1.50
2023-02-26T11:19:56.837Z,2.72
2023-02-26T11:22:27.523Z,3.00
2023-02-26T11:24:56.272Z,1.65
2023-02-26T11:27:36.151Z,3.30
2023-02-26T11:30:25.541Z,3.33
2023-02-26T11:32:56.472Z,4.43
2023-02-26T11:35:26.451Z,4.00
2023-02-26T11:37:59.853Z,2.38
2023-02-26T11:40:41.726Z,1.60
2023-02-26T11:43:15.261Z,1.30
2023-02-26T11:45:45.404Z,6.72
2023-02-26T11:48:22.771Z,0.50
2023-02-26T11:50:55.193Z,1.45
2023-02-26T11:53:31.511Z,2.00
2023-02-26T11:56:02.104Z,2.90
2023-02-26T11:58:35.711Z,0.88
2023-02-26T12:01:04.554Z,0.38
2023-02-26T12:03:36.025Z,5.10
2023-02-26T12:06:04.329Z,3.13
2023-02-26T12:08:38.324Z,4.10
2023-02-26T12:11:17.272Z,1.60
2023-02-26T12:14:21.459Z,2.50
2023-02-26T12:17:07.389Z,2.78
2023-02-26T12:19:46.313Z,3.30
2023-02-26T12:22:27.045Z,2.13
2023-02-26T12:25:21.903Z,1.95
2023-02-26T12:28:01.406Z,3.50
2023-02-26T12:30:51.300Z,2.17
2023-02-26T12:33:36.332Z,1.40
2023-02-26T12:36:22.804Z,5.25
2023-02-26T12:39:04.587Z,2.83
2023-02-26T12:41:54.993Z,1.47
2023-02-26T12:44:46.920Z,1.67
2023-02-26T12:47:25.664Z,3.28
2023-02-26T12:50:09.327Z,1.10
2023-02-26T12:52:52.076Z,2.83
2023-02-26T12:58:42.162Z,1.15
2023-02-26T13:01:28.201Z,6.80
2023-02-26T13:04:03.848Z,7.55
2023-02-26T13:06:45.538Z,0.70
2023-02-26T13:09:43.566Z,0.82
2023-02-26T13:12:23.648Z,1.85
2023-02-26T13:14:53.360Z,1.27
2023-02-26T13:17:46.749Z,3.85
2023-02-26T13:20:19.351Z,2.25
2023-02-26T13:25:34.868Z,2.70
2023-02-26T13:28:19.648Z,4.22
2023-02-26T13:30:52.554Z,4.30
2023-02-26T13:33:28.052Z,0.43
2023-02-26T13:35:57.064Z,3.15
2023-02-26T13:38:47.347Z,1.30
2023-02-26T13:41:22.258Z,10.27
2023-02-26T13:44:06.128Z,1.45
2023-02-26T13:46:58.608Z,2.35
2023-02-26T13:49:37.942Z,2.80
2023-02-26T13:52:04.947Z,4.25
2023-02-26T13:54:50.573Z,4.20
2023-02-26T13:57:25.725Z,3.83
2023-02-26T14:00:20.640Z,6.25
2023-02-26T14:03:12.244Z,3.30
2023-02-26T14:05:46.326Z,2.90
2023-02-26T14:08:39.158Z,1.77
2023-02-26T14:11:39.478Z,8.10
2023-02-26T14:14:18.960Z,2.50
2023-02-26T14:16:52.893Z,1.40
2023-02-26T14:19:29.280Z,5.53
2023-02-26T14:22:18.584Z,5.40
2023-02-26T14:25:08.421Z,8.43
2023-02-26T14:27:40.756Z,4.90
2023-02-26T14:30:10.901Z,1.60
2023-02-26T14:32:54.526Z,2.05
2023-02-26T14:35:30.503Z,5.20
2023-02-26T14:38:01.116Z,1.92
2023-02-26T14:40:33.033Z,4.28
2023-02-26T14:43:04.698Z,1.85
2023-02-26T14:45:36.288Z,3.27
2023-02-26T14:48:11.852Z,3.20
2023-02-26T14:50:57.313Z,12.55
2023-02-26T14:53:48.378Z,1.92
2023-02-26T14:56:30.863Z,3.22
2023-02-26T14:59:33.618Z,7.85
2023-02-26T15:02:31.961Z,0.65
2023-02-26T15:05:29.309Z,1.23
2023-02-26T15:08:15.280Z,2.15
2023-02-26T15:11:06.524Z,1.58
2023-02-26T15:13:48.194Z,2.63
2023-02-26T15:16:37.225Z,2.72
2023-02-26T15:19:18.558Z,0.13
2023-02-26T15:22:00.581Z,6.18
2023-02-26T15:24:30.783Z,5.75
2023-02-26T15:27:02.382Z,3.45
2023-02-26T15:29:33.087Z,2.43
2023-02-26T15:32:13.713Z,2.63
2023-02-26T15:34:48.727Z,6.18
2023-02-26T15:37:23.630Z,8.57
2023-02-26T15:39:51.444Z,4.28
2023-02-26T15:42:21.328Z,2.60
2023-02-26T15:44:56.833Z,1.42
2023-02-26T15:47:24.340Z,3.38
2023-02-26T15:49:51.624Z,5.85
2023-02-26T15:52:22.561Z,8.68
2023-02-26T15:54:52.830Z,2.08
2023-02-26T15:57:24.117Z,0.70
2023-02-26T15:59:54.216Z,1.17
2023-02-26T16:02:30.970Z,2.45
2023-02-26T16:04:58.285Z,1.35
2023-02-26T16:07:25.706Z,2.60
2023-02-26T16:09:54.401Z,3.30
2023-02-26T16:12:25.683Z,6.07
2023-02-26T16:14:57.155Z,2.38
2023-02-26T16:17:42.488Z,3.38
2023-02-26T16:20:39.102Z,1.48
2023-02-26T16:23:33.040Z,3.33
2023-02-26T16:26:02.818Z,4.32
2023-02-26T16:28:33.660Z,6.53
2023-02-26T16:31:04.536Z,2.17
2023-02-26T16:33:34.228Z,3.45
2023-02-26T16:36:12.374Z,4.72
2023-02-26T16:38:47.550Z,7.95
2023-02-26T16:41:14.685Z,2.75
2023-02-26T16:43:44.750Z,1.17
2023-02-26T16:46:15.568Z,2.50
2023-02-26T16:48:49.305Z,4.13
2023-02-26T16:51:22.546Z,1.42
2023-02-26T16:54:03.089Z,1.17
2023-02-26T16:56:33.140Z,3.17
2023-02-26T16:59:20.577Z,3.63
2023-02-26T17:02:00.566Z,5.10
2023-02-26T17:04:34.287Z,2.22
2023-02-26T17:07:05.151Z,2.17
2023-02-26T17:09:42.827Z,3.72
2023-02-26T17:12:24.040Z,6.00
2023-02-26T17:15:00.469Z,3.13
2023-02-26T17:17:27.981Z,2.40
2023-02-26T17:19:55.110Z,4.43
2023-02-26T17:22:27.877Z,4.38
2023-02-26T17:24:55.135Z,1.33
2023-02-26T17:27:32.393Z,4.50
2023-02-26T17:30:02.049Z,4.05
2023-02-26T17:32:31.170Z,2.58
2023-02-26T17:34:59.015Z,2.90
2023-02-26T17:37:39.527Z,5.78
2023-02-26T17:40:28.620Z,4.60
2023-02-26T17:42:56.962Z,6.00
2023-02-26T17:45:24.052Z,1.88
2023-02-26T17:47:51.606Z,6.85
2023-02-26T17:50:54.772Z,3.92
2023-02-26T17:53:23.786Z,4.32
2023-02-26T17:55:53.191Z,7.07
2023-02-26T17:58:31.992Z,7.43
2023-02-26T18:01:00.203Z,6.38
2023-02-26T18:03:27.566Z,10.27
2023-02-26T18:05:56.066Z,9.18
2023-02-26T18:08:26.756Z,19.80
2023-02-26T18:10:54.196Z,11.27
2023-02-26T18:13:22.095Z,9.90
2023-02-26T18:15:50.525Z,11.20
2023-02-26T18:18:19.732Z,12.07
2023-02-26T18:20:47.349Z,10.52
2023-02-26T18:23:16.585Z,19.35
2023-02-26T18:25:46.193Z,15.85
2023-02-26T18:28:22.106Z,6.80
2023-02-26T18:30:50.662Z,8.15
2023-02-26T18:33:18.642Z,10.65
2023-02-26T18:35:47.881Z,7.55
2023-02-26T18:38:16.698Z,4.68
2023-02-26T18:40:45.448Z,4.72
2023-02-26T18:43:12.821Z,8.55
2023-02-26T18:45:40.995Z,9.13
2023-02-26T18:48:11.313Z,7.05
2023-02-26T18:50:38.376Z,5.22
2023-02-26T18:53:05.478Z,5.72
2023-02-26T18:55:32.789Z,4.53
2023-02-26T18:58:01.739Z,3.10
2023-02-26T19:00:29.333Z,5.97
2023-02-26T19:02:56.545Z,4.25
2023-02-26T19:05:24.629Z,3.88
2023-02-26T19:07:51.964Z,2.67
2023-02-26T19:10:19.246Z,3.35
2023-02-26T19:12:46.389Z,5.13
2023-02-26T19:15:14.135Z,4.60
2023-02-26T19:17:42.138Z,5.47
2023-02-26T19:20:10.212Z,3.13
2023-02-26T19:22:37.391Z,9.98
2023-02-26T19:25:05.591Z,2.30
2023-02-26T19:27:32.669Z,3.63
2023-02-26T19:29:59.687Z,6.75
2023-02-26T19:32:27.076Z,5.82
2023-02-26T19:34:54.175Z,4.82
2023-02-26T19:37:21.299Z,4.32
2023-02-26T19:39:48.701Z,4.13
2023-02-26T19:42:16.027Z,3.22
2023-02-26T19:44:43.035Z,3.85
2023-02-26T19:47:10.316Z,9.13
2023-02-26T19:49:37.331Z,3.80
2023-02-26T19:52:04.691Z,5.97
2023-02-26T19:54:31.858Z,8.15
2023-02-26T19:56:59.304Z,5.97
2023-02-26T19:59:26.814Z,7.15
2023-02-26T20:01:54.066Z,7.60
2023-02-26T20:04:21.313Z,6.30
2023-02-26T20:06:48.279Z,16.88
2023-02-26T20:09:17.077Z,12.13
2023-02-26T20:11:44.093Z,11.50
2023-02-26T20:14:11.377Z,9.68
2023-02-26T20:16:38.776Z,11.68
2023-02-26T20:19:06.361Z,14.15
2023-02-26T20:21:33.949Z,9.00
2023-02-26T20:24:01.042Z,8.82
2023-02-26T20:26:28.178Z,8.05
2023-02-26T20:28:55.176Z,7.28
2023-02-26T20:31:22.321Z,10.20
2023-02-26T20:33:49.803Z,15.68
2023-02-26T20:36:17.105Z,18.65
2023-02-26T20:38:44.419Z,13.77
2023-02-26T20:41:11.463Z,20.90
2023-02-26T20:43:38.681Z,20.33
2023-02-26T20:46:05.829Z,16.67
2023-02-26T20:48:34.641Z,11.35
2023-02-26T20:51:05.190Z,13.38
2023-02-26T20:53:32.466Z,7.15
2023-02-26T20:56:00.015Z,10.23
2023-02-26T20:58:27.514Z,6.88
2023-02-26T21:00:56.844Z,4.07
2023-02-26T21:03:24.473Z,10.45
2023-02-26T21:05:51.599Z,9.32
2023-02-26T21:08:18.759Z,6.60
2023-02-26T21:10:45.865Z,7.40
2023-02-26T21:13:13.199Z,5.18
2023-02-26T21:15:40.257Z,6.18
2023-02-26T21:18:07.430Z,6.15
2023-02-26T21:20:34.675Z,4.22
2023-02-26T21:23:01.662Z,9.48
2023-02-26T21:25:31.271Z,5.60
2023-02-26T21:27:58.642Z,6.03
2023-02-26T21:30:25.784Z,7.07
2023-02-26T21:32:52.802Z,4.30
2023-02-26T21:35:20.079Z,6.88
2023-02-26T21:37:47.160Z,4.38
2023-02-26T21:40:22.931Z,4.05
2023-02-26T21:42:55.415Z,4.78
2023-02-26T21:45:22.463Z,6.70
2023-02-26T21:47:49.450Z,5.95
2023-02-26T21:50:16.706Z,6.90
2023-02-26T21:52:43.874Z,10.43
2023-02-26T21:55:11.448Z,8.93
2023-02-26T21:57:38.712Z,9.57
2023-02-26T22:00:10.161Z,6.10
2023-02-26T22:02:40.496Z,8.38
2023-02-26T22:05:07.870Z,11.70
2023-02-26T22:07:35.706Z,6.90
2023-02-26T22:10:03.380Z,10.55
2023-02-26T22:12:30.370Z,6.75
2023-02-26T22:14:57.435Z,5.68
2023-02-26T22:17:25.098Z,7.88
2023-02-26T22:19:52.241Z,6.85
2023-02-26T22:22:19.219Z,8.93
2023-02-26T22:24:46.227Z,10.75
2023-02-26T22:27:13.299Z,11.50
2023-02-26T22:29:40.372Z,18.75
2023-02-26T22:32:07.463Z,15.23
2023-02-26T22:34:36.619Z,20.58
2023-02-26T22:37:04.074Z,13.57
2023-02-26T22:39:31.134Z,17.45
2023-02-26T22:41:58.091Z,15.23
2023-02-26T22:44:25.261Z,17.88
2023-02-26T22:46:52.265Z,24.63
2023-02-26T22:49:19.829Z,25.83
2023-02-26T22:51:47.654Z,27.58
2023-02-26T22:54:14.643Z,23.98
2023-02-26T22:56:41.627Z,14.02
2023-02-26T22:59:08.648Z,16.25
2023-02-26T23:01:35.795Z,11.95
2023-02-26T23:04:02.869Z,14.85
2023-02-26T23:06:29.879Z,11.32
2023-02-26T23:08:56.985Z,11.13
2023-02-26T23:11:24.036Z,15.40
2023-02-26T23:13:51.142Z,15.63
2023-02-26T23:16:18.222Z,15.23
2023-02-26T23:18:47.905Z,15.98
2023-02-26T23:21:15.404Z,11.57
2023-02-26T23:23:43.803Z,13.38
2023-02-26T23:26:11.465Z,19.88
2023-02-26T23:28:38.573Z,17.77
2023-02-26T23:31:05.955Z,16.50
2023-02-26T23:33:32.991Z,15.00
2023-02-26T23:36:00.036Z,8.68
2023-02-26T23:38:27.152Z,16.38
2023-02-26T23:40:54.276Z,12.55
2023-02-26T23:43:21.287Z,15.55
2023-02-26T23:45:48.558Z,14.15
2023-02-26T23:48:15.527Z,15.02
2023-02-26T23:50:42.594Z,9.80
2023-02-26T23:53:09.592Z,16.90
2023-02-26T23:55:36.586Z,15.65
2023-02-26T23:58:03.602Z,10.65
